createdAt,value
2022-08-07T00:00:52.261Z,1.60
2022-08-07T00:03:55.161Z,1.40
2022-08-07T00:06:56.721Z,1.40
2022-08-07T00:10:25.430Z,1.60
2022-08-07T00:13:25.822Z,1.50
2022-08-07T00:16:28.330Z,1.48
2022-08-07T00:20:00.077Z,1.58
2022-08-07T00:22:54.716Z,1.40
2022-08-07T00:26:00.079Z,1.55
2022-08-07T00:29:02.034Z,1.40
2022-08-07T00:32:06.884Z,1.52
2022-08-07T00:35:09.084Z,1.33
2022-08-07T00:38:10.575Z,1.50
2022-08-07T00:41:15.291Z,1.60
2022-08-07T00:44:16.989Z,1.63
2022-08-07T00:48:09.237Z,1.80
2022-08-07T00:50:50.346Z,1.60
2022-08-07T00:53:55.905Z,1.60
2022-08-07T00:56:57.782Z,1.50
2022-08-07T00:59:59.625Z,1.60
2022-08-07T01:03:01.297Z,1.60
2022-08-07T01:06:03.196Z,1.40
2022-08-07T01:09:05.309Z,1.40
2022-08-07T01:12:28.843Z,1.60
2022-08-07T01:15:36.081Z,1.50
2022-08-07T01:18:56.159Z,1.40
2022-08-07T01:22:00.102Z,1.42
2022-08-07T01:25:40.245Z,1.40
2022-08-07T01:28:33.205Z,1.55
2022-08-07T01:31:42.725Z,1.50
2022-08-07T01:34:50.704Z,1.42
2022-08-07T01:37:53.528Z,1.60
2022-08-07T01:40:59.750Z,1.70
2022-08-07T01:44:03.232Z,1.50
2022-08-07T01:47:14.318Z,1.45
2022-08-07T01:50:32.114Z,1.60
2022-08-07T01:54:12.540Z,1.50
2022-08-07T01:57:24.948Z,1.60
2022-08-07T02:00:31.159Z,1.60
2022-08-07T02:03:49.195Z,1.40
2022-08-07T02:06:57.351Z,1.50
2022-08-07T02:10:02.535Z,1.63
2022-08-07T02:13:10.470Z,1.55
2022-08-07T02:16:28.349Z,1.50
2022-08-07T02:20:04.374Z,1.50
2022-08-07T02:22:59.941Z,1.42
2022-08-07T02:26:30.926Z,1.38
2022-08-07T02:29:28.497Z,1.63
2022-08-07T02:32:33.672Z,1.50
2022-08-07T02:36:29.080Z,1.70
2022-08-07T02:39:16.600Z,1.60
2022-08-07T02:42:21.871Z,1.73
2022-08-07T02:46:00.479Z,1.60
2022-08-07T02:48:55.237Z,1.70
2022-08-07T02:52:00.505Z,1.75
2022-08-07T02:55:28.622Z,1.67
2022-08-07T02:58:47.388Z,1.40
2022-08-07T03:01:52.229Z,1.60
2022-08-07T03:04:59.903Z,1.40
2022-08-07T03:08:10.521Z,1.73
2022-08-07T03:11:17.572Z,1.40
2022-08-07T03:14:22.616Z,1.85
2022-08-07T03:17:25.908Z,2.00
2022-08-07T03:20:29.604Z,2.08
2022-08-07T03:23:33.884Z,2.05
2022-08-07T03:26:59.511Z,2.05
2022-08-07T03:30:08.425Z,1.83
2022-08-07T03:33:14.377Z,1.90
2022-08-07T03:36:19.056Z,1.90
2022-08-07T03:39:59.637Z,1.60
2022-08-07T03:42:45.148Z,1.70
2022-08-07T03:45:48.921Z,1.90
2022-08-07T03:49:03.005Z,1.60
2022-08-07T03:52:22.726Z,1.73
2022-08-07T03:55:57.822Z,2.00
2022-08-07T03:59:09.353Z,1.90
2022-08-07T04:02:15.837Z,1.92
2022-08-07T04:05:28.756Z,2.08
2022-08-07T04:08:43.248Z,2.10
2022-08-07T04:12:24.310Z,1.90
2022-08-07T04:15:11.969Z,1.70
2022-08-07T04:18:57.866Z,2.22
2022-08-07T04:21:36.475Z,1.85
2022-08-07T04:24:41.100Z,1.83
2022-08-07T04:27:46.184Z,2.30
2022-08-07T04:31:03.299Z,2.10
2022-08-07T04:34:16.717Z,2.30
2022-08-07T04:37:20.658Z,2.30
2022-08-07T04:40:30.178Z,2.05
2022-08-07T04:44:12.929Z,1.67
2022-08-07T04:47:56.937Z,2.15
2022-08-07T04:51:02.235Z,2.10
2022-08-07T04:54:16.167Z,2.00
2022-08-07T04:58:10.520Z,2.13
2022-08-07T05:04:47.147Z,1.95
2022-08-07T05:08:02.020Z,2.10
2022-08-07T05:11:11.048Z,2.10
2022-08-07T05:14:55.450Z,2.00
2022-08-07T05:18:09.363Z,2.38
2022-08-07T05:21:18.725Z,2.25
2022-08-07T05:24:41.457Z,2.20
2022-08-07T05:28:03.239Z,1.60
2022-08-07T05:31:16.774Z,1.73
2022-08-07T05:34:20.768Z,1.70
2022-08-07T05:37:29.796Z,1.60
2022-08-07T05:40:50.599Z,1.50
2022-08-07T05:44:08.334Z,1.70
2022-08-07T05:47:19.938Z,1.60
2022-08-07T05:50:25.358Z,1.60
2022-08-07T05:54:12.531Z,1.45
2022-08-07T05:56:54.604Z,1.80
2022-08-07T05:59:58.344Z,1.63
2022-08-07T06:03:07.235Z,1.50
2022-08-07T06:06:09.456Z,1.55
2022-08-07T06:09:14.819Z,1.70
2022-08-07T06:12:21.134Z,1.67
2022-08-07T06:15:39.526Z,1.60
2022-08-07T06:18:51.496Z,1.80
2022-08-07T06:22:15.859Z,1.70
2022-08-07T06:25:20.563Z,1.65
2022-08-07T06:28:27.502Z,1.70
2022-08-07T06:31:46.703Z,1.60
2022-08-07T06:34:52.574Z,2.10
2022-08-07T06:37:54.257Z,1.80
2022-08-07T06:40:59.135Z,1.70
2022-08-07T06:44:06.667Z,1.70
2022-08-07T06:47:15.552Z,1.50
2022-08-07T06:50:19.160Z,2.00
2022-08-07T06:55:29.104Z,1.80
2022-08-07T06:56:50.670Z,1.80
2022-08-07T07:00:15.073Z,1.75
2022-08-07T07:03:39.915Z,1.75
2022-08-07T07:07:00.297Z,1.80
2022-08-07T07:10:03.847Z,1.90
2022-08-07T07:13:40.575Z,1.80
2022-08-07T07:16:49.731Z,2.10
2022-08-07T07:19:59.561Z,1.67
2022-08-07T07:24:05.344Z,1.67
2022-08-07T07:26:34.426Z,1.50
2022-08-07T07:30:07.450Z,2.13
2022-08-07T07:33:11.801Z,1.73
2022-08-07T07:36:17.496Z,1.90
2022-08-07T07:39:22.794Z,1.60
2022-08-07T07:42:33.093Z,1.75
2022-08-07T07:46:36.691Z,1.70
2022-08-07T07:50:29.831Z,1.60
2022-08-07T07:52:25.065Z,1.88
2022-08-07T07:55:37.765Z,1.83
2022-08-07T07:58:49.486Z,1.75
2022-08-07T08:02:01.667Z,2.00
2022-08-07T08:05:14.512Z,2.25
2022-08-07T08:08:34.346Z,1.73
2022-08-07T08:11:59.780Z,1.90
2022-08-07T08:21:55.893Z,1.98
2022-08-07T08:25:41.965Z,2.00
2022-08-07T08:28:45.080Z,2.08
2022-08-07T08:32:17.612Z,2.15
2022-08-07T08:35:17.132Z,2.40
2022-08-07T08:38:25.783Z,2.35
2022-08-07T08:41:57.037Z,2.10
2022-08-07T08:45:26.731Z,2.00
2022-08-07T08:48:51.183Z,2.28
2022-08-07T08:52:16.787Z,2.15
2022-08-07T08:55:55.480Z,2.20
2022-08-07T08:59:06.379Z,2.15
2022-08-07T09:02:36.706Z,2.10
2022-08-07T09:05:55.897Z,2.40
2022-08-07T09:09:20.719Z,2.17
2022-08-07T09:12:53.203Z,2.15
2022-08-07T09:16:30.425Z,2.30
2022-08-07T09:19:55.232Z,2.58
2022-08-07T09:24:31.344Z,2.80
2022-08-07T09:26:47.823Z,2.40
2022-08-07T09:30:07.120Z,2.10
2022-08-07T09:33:40.969Z,2.20
2022-08-07T09:37:01.774Z,2.30
2022-08-07T09:40:17.816Z,2.30
2022-08-07T09:43:40.152Z,2.38
2022-08-07T09:47:49.423Z,2.25
2022-08-07T09:50:35.254Z,2.40
2022-08-07T09:53:41.145Z,2.40
2022-08-07T09:56:58.420Z,2.38
2022-08-07T10:00:14.710Z,2.20
2022-08-07T10:04:05.331Z,2.40
2022-08-07T10:07:52.320Z,2.38
2022-08-07T10:11:17.177Z,2.22
2022-08-07T10:14:47.524Z,2.28
2022-08-07T10:18:03.824Z,2.47
2022-08-07T10:22:15.977Z,2.40
2022-08-07T10:25:44.373Z,2.45
2022-08-07T10:29:18.006Z,2.40
2022-08-07T10:32:59.695Z,2.25
2022-08-07T10:36:11.370Z,2.40
2022-08-07T10:40:02.999Z,2.38
2022-08-07T10:43:19.311Z,2.30
2022-08-07T10:46:42.875Z,2.75
2022-08-07T10:49:56.849Z,2.10
2022-08-07T10:53:41.993Z,2.30
2022-08-07T10:57:03.185Z,2.13
2022-08-07T11:00:09.971Z,2.25
2022-08-07T11:03:52.480Z,2.30
2022-08-07T11:07:56.459Z,2.25
2022-08-07T11:11:00.057Z,2.20
2022-08-07T11:14:46.353Z,2.17
2022-08-07T11:18:06.073Z,2.20
2022-08-07T11:21:23.511Z,2.10
2022-08-07T11:24:37.631Z,2.17
2022-08-07T11:28:08.622Z,2.22
2022-08-07T11:31:26.956Z,2.55
2022-08-07T11:34:40.985Z,2.05
2022-08-07T11:37:58.272Z,2.13
2022-08-07T11:41:28.411Z,1.85
2022-08-07T11:44:58.786Z,2.08
2022-08-07T11:48:30.041Z,2.30
2022-08-07T11:52:05.709Z,2.00
2022-08-07T11:56:25.317Z,2.13
2022-08-07T11:59:00.963Z,1.98
2022-08-07T12:02:30.416Z,1.90
2022-08-07T12:05:49.505Z,1.83
2022-08-07T12:09:01.652Z,1.80
2022-08-07T12:12:11.614Z,1.90
2022-08-07T12:15:46.056Z,2.08
2022-08-07T12:18:57.740Z,1.85
2022-08-07T12:22:37.790Z,1.80
2022-08-07T12:26:21.875Z,1.80
2022-08-07T12:29:38.317Z,1.75
2022-08-07T12:32:40.833Z,1.70
2022-08-07T12:35:48.638Z,2.42
2022-08-07T12:39:09.293Z,1.92
2022-08-07T12:42:27.889Z,1.90
2022-08-07T12:46:32.843Z,1.88
2022-08-07T12:49:53.299Z,1.90
2022-08-07T12:53:17.639Z,1.83
2022-08-07T12:56:22.724Z,1.90
2022-08-07T12:59:37.125Z,1.88
2022-08-07T13:03:27.094Z,1.90
2022-08-07T13:07:00.981Z,1.77
2022-08-07T13:10:39.438Z,1.70
2022-08-07T13:13:57.775Z,1.80
2022-08-07T13:17:09.844Z,2.00
2022-08-07T13:20:27.752Z,1.58
2022-08-07T13:24:00.887Z,1.90
2022-08-07T13:27:15.023Z,1.67
2022-08-07T13:30:40.238Z,1.70
2022-08-07T13:34:33.767Z,1.67
2022-08-07T13:37:58.955Z,1.67
2022-08-07T13:41:16.718Z,1.77
2022-08-07T13:44:26.168Z,1.48
2022-08-07T13:48:06.389Z,1.58
2022-08-07T13:51:01.433Z,1.60
2022-08-07T13:54:09.337Z,1.60
2022-08-07T13:57:25.357Z,1.50
2022-08-07T14:00:39.533Z,1.52
2022-08-07T14:04:07.034Z,1.52
2022-08-07T14:07:11.772Z,1.30
2022-08-07T14:10:21.813Z,1.55
2022-08-07T14:13:33.505Z,1.50
2022-08-07T14:16:40.283Z,1.50
2022-08-07T14:20:43.229Z,1.40
2022-08-07T14:23:59.324Z,1.33
2022-08-07T14:30:05.114Z,1.45
2022-08-07T14:33:10.209Z,1.60
2022-08-07T14:36:17.487Z,1.30
2022-08-07T14:40:15.606Z,1.20
2022-08-07T14:43:55.186Z,1.20
2022-08-07T14:46:07.778Z,1.65
2022-08-07T14:49:17.407Z,1.20
2022-08-07T14:52:36.067Z,1.35
2022-08-07T14:55:55.663Z,1.50
2022-08-07T14:59:13.844Z,1.20
2022-08-07T15:02:32.075Z,1.20
2022-08-07T15:05:54.991Z,1.27
2022-08-07T15:09:58.048Z,1.23
2022-08-07T15:12:41.987Z,1.20
2022-08-07T15:19:16.756Z,1.10
2022-08-07T15:25:46.582Z,1.13
2022-08-07T15:32:39.712Z,1.20
2022-08-07T15:36:01.987Z,1.15
2022-08-07T15:39:10.477Z,1.27
2022-08-07T15:42:48.131Z,1.13
2022-08-07T15:46:01.589Z,1.30
2022-08-07T15:49:14.513Z,1.10
2022-08-07T15:52:30.620Z,1.20
2022-08-07T15:56:01.915Z,1.15
2022-08-07T15:58:59.291Z,1.02
2022-08-07T16:02:02.857Z,1.15
2022-08-07T16:05:15.318Z,1.10
2022-08-07T16:08:31.123Z,0.93
2022-08-07T16:12:35.023Z,1.20
2022-08-07T16:15:57.920Z,1.10
2022-08-07T16:19:14.590Z,1.23
2022-08-07T16:22:55.057Z,1.40
2022-08-07T16:26:14.305Z,1.00
2022-08-07T16:30:11.749Z,1.10
2022-08-07T16:34:01.334Z,1.30
2022-08-07T16:37:02.444Z,1.20
2022-08-07T16:40:34.034Z,1.13
2022-08-07T16:44:46.379Z,1.00
2022-08-07T16:51:21.834Z,1.02
2022-08-07T16:54:40.352Z,1.20
2022-08-07T16:58:08.026Z,1.20
2022-08-07T17:01:15.802Z,1.10
2022-08-07T17:04:50.858Z,1.20
2022-08-07T17:08:00.489Z,1.00
2022-08-07T17:11:14.415Z,1.00
2022-08-07T17:14:32.312Z,0.98
2022-08-07T17:17:47.664Z,1.10
2022-08-07T17:20:54.836Z,1.48
2022-08-07T17:24:23.731Z,1.20
2022-08-07T17:27:33.201Z,1.15
2022-08-07T17:30:58.164Z,1.35
2022-08-07T17:34:34.346Z,1.25
2022-08-07T17:38:05.788Z,1.25
2022-08-07T17:42:01.874Z,1.40
2022-08-07T17:44:50.628Z,1.20
2022-08-07T17:48:01.992Z,1.20
2022-08-07T17:51:21.588Z,1.20
2022-08-07T17:54:53.307Z,0.90
2022-08-07T17:58:08.785Z,1.10
2022-08-07T18:01:21.943Z,1.00
2022-08-07T18:04:35.095Z,1.00
2022-08-07T18:07:43.806Z,1.40
2022-08-07T18:12:08.248Z,1.40
2022-08-07T18:14:46.458Z,1.10
2022-08-07T18:18:46.422Z,1.10
2022-08-07T18:21:41.413Z,1.40
2022-08-07T18:24:51.500Z,1.10
2022-08-07T18:28:07.202Z,1.35
2022-08-07T18:31:18.583Z,1.40
2022-08-07T18:35:01.675Z,2.10
2022-08-07T18:38:57.382Z,1.10
2022-08-07T18:42:13.226Z,1.42
2022-08-07T18:45:45.032Z,1.20
2022-08-07T18:50:35.237Z,1.00
2022-08-07T18:52:40.769Z,1.10
2022-08-07T18:56:13.732Z,1.00
2022-08-07T18:59:47.981Z,1.30
2022-08-07T19:03:11.936Z,1.20
2022-08-07T19:06:48.293Z,1.13
2022-08-07T19:10:18.441Z,1.10
2022-08-07T19:13:35.542Z,1.20
2022-08-07T19:17:04.665Z,1.20
2022-08-07T19:20:29.901Z,1.10
2022-08-07T19:23:58.489Z,1.27
2022-08-07T19:28:58.102Z,1.10
2022-08-07T19:31:04.231Z,1.60
2022-08-07T19:33:58.393Z,1.10
2022-08-07T19:37:10.245Z,1.25
2022-08-07T19:40:31.623Z,1.00
2022-08-07T19:43:43.612Z,1.20
2022-08-07T19:47:06.622Z,1.30
2022-08-07T19:50:44.293Z,1.25
2022-08-07T19:58:03.482Z,1.17
2022-08-07T20:00:29.811Z,1.20
2022-08-07T20:03:35.646Z,1.40
2022-08-07T20:06:43.159Z,1.20
2022-08-07T20:10:36.537Z,1.23
2022-08-07T20:13:23.039Z,1.13
2022-08-07T20:16:35.692Z,1.17
2022-08-07T20:19:48.051Z,1.33
2022-08-07T20:23:32.994Z,1.10
2022-08-07T20:26:44.927Z,1.20
2022-08-07T20:29:58.381Z,1.15
2022-08-07T20:33:03.991Z,1.30
2022-08-07T20:36:08.877Z,1.23
2022-08-07T20:39:31.129Z,1.75
2022-08-07T20:42:48.384Z,1.17
2022-08-07T20:46:29.108Z,1.15
2022-08-07T20:50:00.447Z,1.20
2022-08-07T20:52:51.017Z,1.20
2022-08-07T20:55:59.884Z,1.35
2022-08-07T20:59:05.279Z,1.20
2022-08-07T21:02:38.461Z,1.50
2022-08-07T21:05:56.142Z,1.40
2022-08-07T21:09:03.781Z,1.20
2022-08-07T21:12:16.495Z,1.35
2022-08-07T21:15:58.260Z,1.42
2022-08-07T21:18:59.992Z,1.58
2022-08-07T21:22:07.130Z,1.50
2022-08-07T21:25:13.059Z,2.50
2022-08-07T21:28:49.968Z,1.35
2022-08-07T21:32:43.991Z,2.28
2022-08-07T21:36:05.203Z,1.40
2022-08-07T21:39:46.259Z,2.00
2022-08-07T21:42:56.405Z,1.70
2022-08-07T21:46:10.609Z,1.50
2022-08-07T21:50:02.184Z,1.90
2022-08-07T21:53:24.410Z,1.90
2022-08-07T21:56:42.383Z,1.60
2022-08-07T22:00:23.110Z,1.23
2022-08-07T22:03:37.714Z,1.30
2022-08-07T22:06:49.878Z,1.30
2022-08-07T22:09:57.586Z,1.20
2022-08-07T22:13:05.765Z,1.40
2022-08-07T22:16:45.609Z,1.50
2022-08-07T22:19:58.677Z,1.30
2022-08-07T22:23:17.090Z,1.30
2022-08-07T22:26:26.749Z,1.67
2022-08-07T22:29:48.274Z,1.45
2022-08-07T22:33:06.119Z,1.40
2022-08-07T22:36:26.431Z,1.55
2022-08-07T22:39:52.737Z,1.52
2022-08-07T22:43:02.230Z,1.40
2022-08-07T22:47:02.755Z,1.25
2022-08-07T22:50:33.295Z,1.40
2022-08-07T22:54:06.641Z,1.40
2022-08-07T22:57:21.092Z,2.60
2022-08-07T23:04:12.728Z,1.40
2022-08-07T23:07:39.926Z,1.45
2022-08-07T23:10:52.557Z,1.40
2022-08-07T23:14:28.718Z,1.30
2022-08-07T23:17:59.650Z,1.30
2022-08-07T23:21:05.194Z,1.38
2022-08-07T23:24:32.777Z,1.33
2022-08-07T23:28:21.758Z,1.30
2022-08-07T23:34:20.332Z,1.55
2022-08-07T23:35:13.463Z,1.33
2022-08-07T23:38:47.384Z,1.30
2022-08-07T23:42:21.437Z,1.38
2022-08-07T23:46:02.268Z,1.40
2022-08-07T23:49:25.273Z,1.33
2022-08-07T23:53:12.006Z,1.50
2022-08-07T23:56:37.943Z,1.60
